Airfield :
LOGIN :

Register | Disclaimer

   EN    FR    IT 

 










Legend :    VFR   Marginal VFR   IFR   Intensive IFR   Very Intensive IFR
Visi :
Ceiling :
>= 8 km
>= 3000ft
5 to 8 km
1000 to 3000 ft
1500m to 5 km
500 to 1000 ft
800 to 1500m
200 to 500 ft
< 800m
< 200 ft
Symbols :   Thunderstorms  Fog  Heavy snow  Heavy precipitations  Wind > 20 kt
SIGMETs :     Misc.  Thunderstorms  Icing  Turbulence  Mountain Waves  Volcanic Ashes







- Airport Elevation : 209 ft
- IATA code : CLY
- Download approach charts


LFKC - Calvi

CURRENT METAR :
  • 300100Z AUTO 18006KT CAVOK 17/10 Q1016 NOSIG

EXPIRED METARs :
  • 300030Z AUTO 18005KT CAVOK 17/10 Q1016 NOSIG
  • 300000Z AUTO 17006KT CAVOK 16/10 Q1016 NOSIG
  • 292330Z AUTO 17003KT CAVOK 16/11 Q1016 NOSIG
  • 292300Z AUTO 17003KT 140V200 CAVOK 16/11 Q1016 NOSIG
  • 292230Z AUTO 17006KT CAVOK 17/11 Q1016 NOSIG

TAF TAF LFKC
Valid from the 29 at 18:00 until the 30 at 18:00 UTC


291700Z 2918/3018 18007KT CAVOK
BECMG 3008/3011 35012KT SCT050 BKN260 TX28/3012Z TN15/3003Z
ATIS : +33 4 95 65 82 49
No reported NOTAMs for that airfield.



MET'MAP, your aeronautical weather chart ! - Copyright ORBIFLY December 2007 - Disclaimer

ORBIFLY MET'MAP TEAM :

Programming & Development : Alexandra Zaïnal
Concept & Development : Baudouin d'Aumeries
Co-Development & Prog : Marc-Olivier Méhu
Technical & hardware support : Manuel Goepfert

Contact : metmap@orbifly.com




SOURCES & CREDITS :

   NOAA